createdAt,value
2023-05-05T00:00:18.462Z,25.40
2023-05-05T00:01:04.059Z,25.39
2023-05-05T00:02:04.080Z,25.39
2023-05-05T00:03:04.130Z,25.40
2023-05-05T00:04:04.078Z,25.39
2023-05-05T00:05:04.264Z,25.40
2023-05-05T00:06:04.049Z,25.40
2023-05-05T00:07:04.022Z,25.39
2023-05-05T00:08:04.010Z,25.39
2023-05-05T00:09:03.958Z,25.40
2023-05-05T00:10:03.936Z,25.39
2023-05-05T00:11:03.912Z,25.39
2023-05-05T00:12:03.903Z,25.38
2023-05-05T00:13:03.995Z,25.39
2023-05-05T00:14:03.852Z,25.39
2023-05-05T00:15:06.471Z,25.39
2023-05-05T00:16:03.781Z,25.38
2023-05-05T00:17:03.767Z,25.38
2023-05-05T00:18:03.771Z,25.37
2023-05-05T00:19:03.698Z,25.37
2023-05-05T00:20:03.661Z,25.37
2023-05-05T00:21:03.636Z,25.37
2023-05-05T00:22:03.603Z,25.38
2023-05-05T00:23:03.571Z,25.37
2023-05-05T00:24:03.572Z,25.38
2023-05-05T00:25:03.524Z,25.38
2023-05-05T00:26:03.493Z,25.37
2023-05-05T00:27:03.511Z,25.38
2023-05-05T00:28:03.447Z,25.38
2023-05-05T00:29:03.419Z,25.37
2023-05-05T00:30:03.408Z,25.37
2023-05-05T00:31:03.393Z,25.37
2023-05-05T00:32:03.375Z,25.37
2023-05-05T00:33:03.381Z,25.37
2023-05-05T00:34:03.292Z,25.36
2023-05-05T00:35:03.278Z,25.36
2023-05-05T00:36:03.295Z,25.37
2023-05-05T00:37:03.265Z,25.36
2023-05-05T00:38:03.290Z,25.36
2023-05-05T00:39:03.335Z,25.35
2023-05-05T00:40:03.313Z,25.36
2023-05-05T00:41:03.335Z,25.35
2023-05-05T00:42:03.332Z,25.35
2023-05-05T00:43:03.392Z,25.36
2023-05-05T00:44:03.376Z,25.36
2023-05-05T00:45:03.371Z,25.35
2023-05-05T00:46:03.428Z,25.35
2023-05-05T00:47:03.417Z,25.34
2023-05-05T00:48:03.438Z,25.35
2023-05-05T00:49:03.501Z,25.35
2023-05-05T00:50:03.442Z,25.35
2023-05-05T00:51:03.467Z,25.34
2023-05-05T00:52:03.480Z,25.34
2023-05-05T00:53:03.515Z,25.33
2023-05-05T00:54:03.505Z,25.35
2023-05-05T00:55:03.533Z,25.33
2023-05-05T00:56:03.563Z,25.33
2023-05-05T00:57:03.570Z,25.34
2023-05-05T00:58:03.554Z,25.33
2023-05-05T00:59:03.499Z,25.33
2023-05-05T01:00:03.476Z,25.33
2023-05-05T01:01:03.477Z,25.33
2023-05-05T01:02:03.435Z,25.33
2023-05-05T01:03:03.577Z,25.33
2023-05-05T01:04:03.439Z,25.32
2023-05-05T01:05:03.376Z,25.32
2023-05-05T01:06:03.310Z,25.33
2023-05-05T01:07:03.290Z,25.33
2023-05-05T01:08:03.268Z,25.32
2023-05-05T01:09:03.254Z,25.32
2023-05-05T01:10:18.064Z,25.31
2023-05-05T01:11:04.189Z,25.30
2023-05-05T01:12:03.165Z,25.31
2023-05-05T01:13:03.185Z,25.31
2023-05-05T01:14:03.115Z,25.31
2023-05-05T01:15:03.121Z,25.31
2023-05-05T01:16:03.069Z,25.31
2023-05-05T01:17:03.034Z,25.31
2023-05-05T01:18:03.049Z,25.31
2023-05-05T01:19:02.986Z,25.30
2023-05-05T01:20:02.985Z,25.30
2023-05-05T01:21:02.954Z,25.30
2023-05-05T01:22:02.930Z,25.30
2023-05-05T01:23:02.916Z,25.30
2023-05-05T01:24:02.883Z,25.30
2023-05-05T01:25:02.874Z,25.30
2023-05-05T01:26:02.849Z,25.31
2023-05-05T01:27:02.812Z,25.30
2023-05-05T01:28:02.869Z,25.30
2023-05-05T01:29:02.775Z,25.30
2023-05-05T01:30:02.750Z,25.30
2023-05-05T01:31:02.735Z,25.30
2023-05-05T01:32:02.733Z,25.29
2023-05-05T01:33:02.687Z,25.28
2023-05-05T01:34:02.669Z,25.28
2023-05-05T01:35:02.637Z,25.29
2023-05-05T01:36:02.607Z,25.29
2023-05-05T01:37:02.578Z,25.29
2023-05-05T01:38:02.615Z,25.28
2023-05-05T01:39:02.648Z,25.27
2023-05-05T01:40:02.638Z,25.28
2023-05-05T01:41:02.647Z,25.28
2023-05-05T01:42:02.674Z,25.28
2023-05-05T01:43:02.701Z,25.29
2023-05-05T01:44:02.717Z,25.28
2023-05-05T01:45:02.726Z,25.28
2023-05-05T01:46:02.788Z,25.28
2023-05-05T01:47:02.750Z,25.28
2023-05-05T01:48:02.791Z,25.27
2023-05-05T01:49:02.791Z,25.27
2023-05-05T01:50:02.820Z,25.27
2023-05-05T01:51:02.830Z,25.26
2023-05-05T01:52:02.851Z,25.27
2023-05-05T01:53:02.836Z,25.27
2023-05-05T01:54:02.812Z,25.27
2023-05-05T01:55:02.783Z,25.27
2023-05-05T01:56:02.770Z,25.26
2023-05-05T01:57:02.747Z,25.26
2023-05-05T01:58:02.751Z,25.26
2023-05-05T01:59:02.710Z,25.27
2023-05-05T02:00:02.685Z,25.26
2023-05-05T02:01:02.712Z,25.26
2023-05-05T02:02:02.751Z,25.26
2023-05-05T02:03:02.783Z,25.26
2023-05-05T02:04:02.644Z,25.26
2023-05-05T02:05:02.624Z,25.26
2023-05-05T02:06:02.627Z,25.26
2023-05-05T02:07:02.583Z,25.26
2023-05-05T02:08:02.621Z,25.25
2023-05-05T02:09:02.547Z,25.26
2023-05-05T02:10:02.569Z,25.26
2023-05-05T02:11:02.581Z,25.26
2023-05-05T02:12:02.593Z,25.26
2023-05-05T02:13:02.685Z,25.24
2023-05-05T02:14:02.686Z,25.25
2023-05-05T02:15:02.623Z,25.24
2023-05-05T02:16:02.653Z,25.24
2023-05-05T02:17:02.572Z,25.25
2023-05-05T02:18:02.632Z,25.24
2023-05-05T02:19:02.539Z,25.25
2023-05-05T02:20:02.540Z,25.25
2023-05-05T02:21:02.499Z,25.24
2023-05-05T02:22:02.487Z,25.24
2023-05-05T02:23:02.473Z,25.24
2023-05-05T02:24:02.463Z,25.24
2023-05-05T02:25:02.448Z,25.24
2023-05-05T02:26:02.446Z,25.24
2023-05-05T02:27:02.415Z,25.24
2023-05-05T02:28:02.404Z,25.24
2023-05-05T02:29:02.375Z,25.24
2023-05-05T02:30:02.357Z,25.24
2023-05-05T02:31:02.406Z,25.23
2023-05-05T02:32:02.323Z,25.23
2023-05-05T02:33:02.338Z,25.23
2023-05-05T02:34:02.295Z,25.23
2023-05-05T02:35:02.330Z,25.23
2023-05-05T02:36:02.369Z,25.23
2023-05-05T02:37:02.356Z,25.22
2023-05-05T02:38:02.386Z,25.22
2023-05-05T02:39:02.368Z,25.22
2023-05-05T02:40:02.346Z,25.22
2023-05-05T02:41:02.349Z,25.22
2023-05-05T02:42:02.320Z,25.21
2023-05-05T02:43:02.330Z,25.22
2023-05-05T02:44:02.305Z,25.22
2023-05-05T02:45:02.283Z,25.21
2023-05-05T02:46:02.405Z,25.25
2023-05-05T02:47:02.239Z,25.31
2023-05-05T02:48:02.338Z,25.35
2023-05-05T02:49:02.228Z,25.34
2023-05-05T02:50:02.206Z,25.32
2023-05-05T02:51:02.197Z,25.29
2023-05-05T02:52:02.214Z,25.27
2023-05-05T02:53:02.184Z,25.22
2023-05-05T02:54:02.151Z,25.18
2023-05-05T02:55:02.153Z,25.15
2023-05-05T02:56:02.164Z,25.12
2023-05-05T02:57:02.146Z,25.08
2023-05-05T02:58:02.125Z,25.05
2023-05-05T02:59:02.083Z,25.02
2023-05-05T03:00:02.063Z,24.96
2023-05-05T03:01:02.061Z,24.92
2023-05-05T03:02:02.052Z,24.88
2023-05-05T03:03:02.096Z,24.86
2023-05-05T03:04:02.064Z,24.82
2023-05-05T03:05:02.126Z,24.76
2023-05-05T03:06:02.160Z,24.72
2023-05-05T03:07:02.209Z,24.71
2023-05-05T03:08:02.268Z,24.66
2023-05-05T03:09:02.304Z,24.64
2023-05-05T03:10:02.362Z,24.62
2023-05-05T03:11:02.426Z,24.60
2023-05-05T03:12:02.485Z,24.57
2023-05-05T03:13:02.547Z,24.53
2023-05-05T03:14:02.569Z,24.51
2023-05-05T03:15:02.527Z,24.48
2023-05-05T03:16:02.587Z,24.47
2023-05-05T03:17:02.580Z,24.46
2023-05-05T03:18:02.607Z,24.46
2023-05-05T03:19:02.589Z,24.41
2023-05-05T03:20:03.963Z,24.39
2023-05-05T03:21:02.606Z,24.38
2023-05-05T03:22:02.613Z,24.37
2023-05-05T03:23:02.642Z,24.32
2023-05-05T03:24:02.621Z,24.29
2023-05-05T03:25:02.620Z,24.27
2023-05-05T03:26:02.623Z,24.27
2023-05-05T03:27:02.603Z,24.25
2023-05-05T03:28:02.628Z,24.24
2023-05-05T03:29:02.645Z,24.25
2023-05-05T03:30:02.621Z,24.26
2023-05-05T03:31:02.607Z,24.25
2023-05-05T03:32:02.672Z,24.24
2023-05-05T03:33:02.644Z,24.23
2023-05-05T03:34:02.623Z,24.20
2023-05-05T03:35:02.615Z,24.19
2023-05-05T03:36:02.635Z,24.17
2023-05-05T03:37:02.628Z,24.15
2023-05-05T03:38:02.649Z,24.11
2023-05-05T03:39:02.656Z,24.09
2023-05-05T03:40:02.712Z,24.12
2023-05-05T03:41:02.674Z,24.10
2023-05-05T03:42:02.695Z,24.12
2023-05-05T03:43:02.718Z,24.12
2023-05-05T03:44:02.716Z,24.09
2023-05-05T03:45:02.745Z,24.05
2023-05-05T03:46:02.762Z,24.05
2023-05-05T03:47:02.749Z,24.05
2023-05-05T03:48:02.775Z,24.03
2023-05-05T03:49:02.740Z,24.00
2023-05-05T03:50:02.726Z,23.98
2023-05-05T03:51:02.718Z,23.98
2023-05-05T03:52:02.721Z,23.97
2023-05-05T03:53:02.728Z,23.95
2023-05-05T03:54:02.727Z,23.93
2023-05-05T03:55:02.730Z,23.94
2023-05-05T03:56:02.722Z,23.92
2023-05-05T03:57:02.710Z,23.94
2023-05-05T03:58:02.704Z,23.93
2023-05-05T03:59:02.714Z,23.91
2023-05-05T04:00:02.705Z,23.88
2023-05-05T04:01:02.700Z,23.89
2023-05-05T04:02:02.718Z,23.87
2023-05-05T04:03:02.772Z,23.85
2023-05-05T04:04:02.737Z,23.83
2023-05-05T04:05:02.671Z,23.79
2023-05-05T04:06:02.679Z,23.77
2023-05-05T04:07:02.680Z,23.76
2023-05-05T04:08:02.672Z,23.77
2023-05-05T04:09:02.698Z,23.77
2023-05-05T04:10:02.729Z,23.78
2023-05-05T04:11:02.807Z,23.76
2023-05-05T04:12:02.815Z,23.74
2023-05-05T04:13:02.928Z,23.73
2023-05-05T04:14:02.902Z,23.71
2023-05-05T04:15:02.956Z,23.70
2023-05-05T04:16:03.094Z,23.68
2023-05-05T04:17:03.037Z,23.67
2023-05-05T04:18:03.115Z,23.67
2023-05-05T04:19:03.114Z,23.67
2023-05-05T04:20:03.163Z,23.66
2023-05-05T04:21:03.216Z,23.65
2023-05-05T04:22:03.253Z,23.64
2023-05-05T04:23:03.241Z,23.62
2023-05-05T04:24:03.256Z,23.62
2023-05-05T04:25:03.239Z,23.64
2023-05-05T04:26:03.235Z,23.63
2023-05-05T04:27:03.232Z,23.63
2023-05-05T04:28:03.235Z,23.61
2023-05-05T04:29:03.252Z,23.63
2023-05-05T04:30:03.253Z,23.62
2023-05-05T04:31:03.324Z,23.64
2023-05-05T04:32:03.247Z,23.62
2023-05-05T04:33:03.339Z,23.61
2023-05-05T04:34:03.250Z,23.60
2023-05-05T04:35:03.267Z,23.59
2023-05-05T04:36:03.299Z,23.59
2023-05-05T04:37:03.363Z,23.57
2023-05-05T04:38:03.427Z,23.54
2023-05-05T04:39:03.461Z,23.56
2023-05-05T04:40:03.479Z,23.57
2023-05-05T04:41:03.553Z,23.56
2023-05-05T04:42:03.576Z,23.56
2023-05-05T04:43:03.645Z,23.55
2023-05-05T04:44:03.701Z,23.56
2023-05-05T04:45:03.748Z,23.57
2023-05-05T04:46:03.813Z,23.55
2023-05-05T04:47:03.832Z,23.52
2023-05-05T04:48:03.935Z,23.54
2023-05-05T04:49:03.933Z,23.54
2023-05-05T04:50:04.008Z,23.55
2023-05-05T04:51:04.040Z,23.56
2023-05-05T04:52:04.092Z,23.55
2023-05-05T04:53:04.079Z,23.52
2023-05-05T04:54:04.089Z,23.51
2023-05-05T04:55:04.106Z,23.51
2023-05-05T04:56:04.067Z,23.52
2023-05-05T04:57:04.063Z,23.51
2023-05-05T04:58:04.187Z,23.52
2023-05-05T04:59:04.099Z,23.52
2023-05-05T05:00:04.063Z,23.53
2023-05-05T05:01:04.050Z,23.54
2023-05-05T05:02:04.151Z,23.57
2023-05-05T05:03:04.119Z,23.60
2023-05-05T05:04:04.078Z,23.65
2023-05-05T05:05:04.088Z,23.69
2023-05-05T05:06:04.139Z,23.73
2023-05-05T05:07:04.179Z,23.77
2023-05-05T05:08:04.245Z,23.80
2023-05-05T05:09:04.286Z,23.83
2023-05-05T05:10:04.314Z,23.87
2023-05-05T05:11:04.333Z,23.89
2023-05-05T05:12:04.359Z,23.92
2023-05-05T05:13:04.433Z,23.94
2023-05-05T05:14:04.421Z,23.96
2023-05-05T05:15:04.448Z,23.98
2023-05-05T05:16:04.517Z,24.00
2023-05-05T05:17:04.472Z,24.01
2023-05-05T05:18:04.576Z,24.03
2023-05-05T05:19:04.522Z,24.05
2023-05-05T05:20:04.538Z,24.06
2023-05-05T05:21:04.562Z,24.07
2023-05-05T05:22:04.601Z,24.08
2023-05-05T05:23:04.647Z,24.10
2023-05-05T05:24:04.608Z,24.11
2023-05-05T05:25:04.619Z,24.12
2023-05-05T05:26:04.622Z,24.13
2023-05-05T05:27:04.647Z,24.14
2023-05-05T05:28:09.513Z,24.14
2023-05-05T05:29:05.640Z,24.15
2023-05-05T05:30:04.623Z,24.17
2023-05-05T05:31:04.633Z,24.17
2023-05-05T05:32:04.675Z,24.18
2023-05-05T05:33:04.626Z,24.20
2023-05-05T05:34:04.585Z,24.23
2023-05-05T05:35:04.580Z,24.21
2023-05-05T05:36:04.564Z,24.20
2023-05-05T05:37:04.567Z,24.16
2023-05-05T05:38:04.553Z,24.08
2023-05-05T05:39:04.568Z,24.00
2023-05-05T05:40:04.568Z,23.95
2023-05-05T05:41:04.548Z,23.94
2023-05-05T05:42:04.543Z,23.92
2023-05-05T05:43:04.579Z,23.90
2023-05-05T05:44:04.540Z,23.88
2023-05-05T05:45:04.518Z,23.87
2023-05-05T05:46:05.378Z,23.87
2023-05-05T05:47:04.526Z,23.88
2023-05-05T05:48:04.605Z,23.89
2023-05-05T05:49:04.600Z,23.85
2023-05-05T05:50:04.574Z,23.83
2023-05-05T05:51:04.596Z,23.82
2023-05-05T05:52:04.644Z,23.81
2023-05-05T05:53:04.724Z,23.76
2023-05-05T05:54:04.778Z,23.71
2023-05-05T05:55:04.811Z,23.64
2023-05-05T05:56:04.854Z,23.60
2023-05-05T05:57:04.970Z,23.56
2023-05-05T05:58:04.990Z,23.53
2023-05-05T05:59:05.035Z,23.48
2023-05-05T06:00:05.222Z,23.47
2023-05-05T06:01:05.169Z,23.47
2023-05-05T06:02:05.205Z,23.42
2023-05-05T06:03:05.377Z,23.36
2023-05-05T06:04:05.286Z,23.32
2023-05-05T06:05:05.252Z,23.27
2023-05-05T06:06:05.242Z,23.23
2023-05-05T06:07:05.244Z,23.23
2023-05-05T06:08:05.269Z,23.22
2023-05-05T06:09:05.283Z,23.20
2023-05-05T06:10:22.674Z,23.20
2023-05-05T06:11:06.358Z,23.20
2023-05-05T06:12:05.307Z,23.19
2023-05-05T06:13:05.362Z,23.17
2023-05-05T06:14:05.319Z,23.12
2023-05-05T06:15:05.320Z,23.07
2023-05-05T06:16:05.541Z,23.04
2023-05-05T06:17:05.332Z,23.02
2023-05-05T06:18:05.409Z,23.02
2023-05-05T06:19:05.354Z,23.02
2023-05-05T06:20:05.395Z,22.99
2023-05-05T06:21:05.367Z,22.97
2023-05-05T06:22:05.370Z,22.94
2023-05-05T06:23:05.382Z,22.89
2023-05-05T06:24:05.398Z,22.86
2023-05-05T06:25:05.422Z,22.87
2023-05-05T06:26:05.418Z,22.91
2023-05-05T06:27:05.418Z,22.95
2023-05-05T06:28:05.427Z,22.96
2023-05-05T06:29:05.423Z,22.96
2023-05-05T06:30:05.594Z,22.94
2023-05-05T06:31:05.454Z,22.95
2023-05-05T06:32:05.464Z,22.95
2023-05-05T06:33:05.505Z,22.95
2023-05-05T06:34:05.496Z,22.95
2023-05-05T06:35:05.497Z,22.95
2023-05-05T06:36:05.520Z,22.95
2023-05-05T06:37:05.509Z,22.97
2023-05-05T06:38:05.493Z,22.98
2023-05-05T06:39:05.521Z,23.00
2023-05-05T06:40:05.690Z,23.01
2023-05-05T06:41:05.637Z,23.02
2023-05-05T06:42:05.539Z,23.03
2023-05-05T06:43:05.660Z,23.05
2023-05-05T06:44:05.550Z,23.12
2023-05-05T06:45:05.521Z,23.20
2023-05-05T06:46:05.544Z,23.27
2023-05-05T06:47:05.563Z,23.32
2023-05-05T06:48:05.586Z,23.36
2023-05-05T06:49:05.542Z,23.36
2023-05-05T06:50:05.688Z,23.34
2023-05-05T06:51:05.530Z,23.36
2023-05-05T06:52:05.675Z,23.36
2023-05-05T06:53:05.521Z,23.33
2023-05-05T06:54:05.529Z,23.33
2023-05-05T06:55:05.531Z,23.30
2023-05-05T06:56:05.549Z,23.30
2023-05-05T06:57:05.543Z,23.31
2023-05-05T06:58:05.532Z,23.27
2023-05-05T06:59:05.541Z,23.27
2023-05-05T07:00:05.818Z,23.25
2023-05-05T07:01:05.626Z,23.23
2023-05-05T07:02:05.548Z,23.20
2023-05-05T07:03:05.585Z,23.19
2023-05-05T07:04:05.592Z,23.20
2023-05-05T07:05:05.543Z,23.22
2023-05-05T07:06:05.548Z,23.22
2023-05-05T07:07:05.566Z,23.22
2023-05-05T07:08:05.626Z,23.21
2023-05-05T07:09:05.570Z,23.19
2023-05-05T07:10:05.728Z,23.19
2023-05-05T07:11:05.583Z,23.21
2023-05-05T07:12:05.572Z,23.24
2023-05-05T07:13:05.606Z,23.25
2023-05-05T07:14:05.578Z,23.25
2023-05-05T07:15:15.780Z,23.24
2023-05-05T07:16:06.627Z,23.24
2023-05-05T07:17:05.574Z,23.26
2023-05-05T07:18:05.629Z,23.26
2023-05-05T07:19:05.570Z,23.26
2023-05-05T07:20:05.636Z,23.29
2023-05-05T07:21:05.562Z,23.30
2023-05-05T07:22:05.561Z,23.30
2023-05-05T07:23:05.612Z,23.32
2023-05-05T07:24:05.637Z,23.30
2023-05-05T07:25:05.593Z,23.29
2023-05-05T07:26:05.638Z,23.30
2023-05-05T07:27:05.611Z,23.29
2023-05-05T07:28:05.601Z,23.29
2023-05-05T07:29:05.569Z,23.28
2023-05-05T07:30:10.122Z,23.28
2023-05-05T07:31:06.572Z,23.29
2023-05-05T07:32:05.609Z,23.34
2023-05-05T07:33:05.599Z,23.36
2023-05-05T07:34:05.609Z,23.37
2023-05-05T07:35:05.556Z,23.38
2023-05-05T07:36:05.571Z,23.40
2023-05-05T07:37:05.550Z,23.43
2023-05-05T07:38:05.550Z,23.47
2023-05-05T07:39:05.595Z,23.52
2023-05-05T07:40:05.925Z,23.58
2023-05-05T07:41:05.544Z,23.67
2023-05-05T07:42:05.545Z,23.73
2023-05-05T07:43:05.547Z,23.76
2023-05-05T07:44:05.590Z,23.78
2023-05-05T07:45:05.574Z,23.78
2023-05-05T07:46:05.673Z,23.80
2023-05-05T07:47:05.649Z,23.81
2023-05-05T07:48:05.778Z,23.82
2023-05-05T07:49:05.760Z,23.83
2023-05-05T07:50:06.490Z,23.83
2023-05-05T07:51:05.842Z,23.83
2023-05-05T07:52:05.879Z,23.88
2023-05-05T07:53:14.566Z,23.90
2023-05-05T07:54:05.942Z,23.90
2023-05-05T07:55:05.922Z,23.91
2023-05-05T07:56:05.977Z,23.93
2023-05-05T07:57:05.899Z,23.96
2023-05-05T07:58:05.887Z,23.98
2023-05-05T07:59:05.916Z,24.01
2023-05-05T08:00:05.970Z,24.01
2023-05-05T08:01:05.885Z,24.01
2023-05-05T08:02:05.893Z,24.02
2023-05-05T08:03:07.191Z,24.07
2023-05-05T08:04:05.871Z,24.11
2023-05-05T08:05:06.092Z,24.15
2023-05-05T08:06:05.774Z,24.16
2023-05-05T08:07:05.791Z,24.16
2023-05-05T08:08:05.762Z,24.19
2023-05-05T08:09:05.782Z,24.25
2023-05-05T08:10:05.761Z,24.25
2023-05-05T08:11:05.832Z,24.25
2023-05-05T08:12:05.936Z,24.27
2023-05-05T08:13:05.790Z,24.25
2023-05-05T08:14:05.716Z,24.26
2023-05-05T08:15:05.905Z,24.26
2023-05-05T08:16:05.749Z,24.24
2023-05-05T08:17:05.671Z,24.25
2023-05-05T08:18:05.750Z,24.25
2023-05-05T08:19:14.607Z,24.27
2023-05-05T08:20:06.651Z,24.28
2023-05-05T08:21:05.649Z,24.28
2023-05-05T08:22:05.635Z,24.29
2023-05-05T08:23:05.636Z,24.28
2023-05-05T08:24:05.632Z,24.28
2023-05-05T08:25:05.686Z,24.31
2023-05-05T08:26:05.586Z,24.33
2023-05-05T08:27:05.578Z,24.34
2023-05-05T08:28:05.666Z,24.37
2023-05-05T08:29:05.607Z,24.40
2023-05-05T08:30:05.542Z,24.43
2023-05-05T08:31:05.664Z,24.44
2023-05-05T08:32:05.525Z,24.47
2023-05-05T08:33:05.562Z,24.51
2023-05-05T08:34:05.502Z,24.51
2023-05-05T08:35:05.615Z,24.42
2023-05-05T08:36:05.467Z,24.38
2023-05-05T08:37:05.459Z,24.37
2023-05-05T08:38:05.426Z,24.34
2023-05-05T08:39:05.436Z,24.33
2023-05-05T08:40:05.416Z,24.34
2023-05-05T08:41:05.414Z,24.32
2023-05-05T08:42:05.400Z,24.27
2023-05-05T08:43:05.396Z,24.21
2023-05-05T08:44:05.647Z,24.11
2023-05-05T08:45:05.647Z,24.01
2023-05-05T08:46:05.391Z,23.98
2023-05-05T08:47:05.436Z,24.00
2023-05-05T08:48:05.474Z,23.98
2023-05-05T08:49:05.472Z,24.02
2023-05-05T08:50:05.367Z,24.01
2023-05-05T08:51:05.752Z,24.04
2023-05-05T08:52:05.375Z,24.06
2023-05-05T08:53:05.605Z,24.09
2023-05-05T08:54:05.461Z,24.13
2023-05-05T08:55:05.606Z,24.18
2023-05-05T08:56:05.546Z,24.21
2023-05-05T08:57:05.601Z,24.23
2023-05-05T08:58:05.672Z,24.25
2023-05-05T08:59:05.774Z,24.29
2023-05-05T09:00:05.824Z,24.34
2023-05-05T09:01:05.808Z,24.35
2023-05-05T09:02:05.861Z,24.37
2023-05-05T09:03:06.017Z,24.39
2023-05-05T09:04:05.874Z,24.42
2023-05-05T09:05:05.871Z,24.44
2023-05-05T09:06:05.847Z,24.47
2023-05-05T09:07:05.895Z,24.53
2023-05-05T09:08:05.831Z,24.55
2023-05-05T09:09:05.869Z,24.59
2023-05-05T09:10:05.832Z,24.59
2023-05-05T09:11:05.849Z,24.63
2023-05-05T09:12:05.890Z,24.68
2023-05-05T09:13:05.971Z,24.68
2023-05-05T09:14:05.996Z,24.69
2023-05-05T09:15:06.120Z,24.69
2023-05-05T09:16:06.056Z,24.67
2023-05-05T09:17:05.984Z,24.65
2023-05-05T09:18:06.015Z,24.64
2023-05-05T09:19:05.942Z,24.64
2023-05-05T09:20:05.950Z,24.64
2023-05-05T09:21:05.917Z,24.63
2023-05-05T09:22:05.932Z,24.64
2023-05-05T09:23:05.902Z,24.62
2023-05-05T09:24:08.244Z,24.63
2023-05-05T09:25:06.082Z,24.64
2023-05-05T09:26:05.875Z,24.65
2023-05-05T09:27:05.845Z,24.66
2023-05-05T09:28:05.853Z,24.68
2023-05-05T09:29:05.891Z,24.70
2023-05-05T09:30:05.834Z,24.71
2023-05-05T09:31:05.937Z,24.71
2023-05-05T09:32:05.906Z,24.72
2023-05-05T09:33:05.854Z,24.73
2023-05-05T09:34:05.756Z,24.78
2023-05-05T09:35:05.773Z,24.79
2023-05-05T09:36:05.737Z,24.77
2023-05-05T09:37:05.733Z,24.76
2023-05-05T09:38:05.712Z,24.79
2023-05-05T09:39:05.692Z,24.81
2023-05-05T09:40:05.707Z,24.82
2023-05-05T09:41:05.726Z,24.82
2023-05-05T09:42:05.784Z,24.86
2023-05-05T09:43:05.811Z,24.91
2023-05-05T09:44:05.896Z,24.90
2023-05-05T09:45:05.921Z,24.88
2023-05-05T09:46:05.989Z,24.83
2023-05-05T09:47:18.161Z,24.78
2023-05-05T09:48:07.111Z,24.77
2023-05-05T09:49:06.022Z,24.75
2023-05-05T09:50:06.222Z,24.77
2023-05-05T09:51:05.925Z,24.81
2023-05-05T09:52:05.936Z,24.85
2023-05-05T09:53:05.930Z,24.87
2023-05-05T09:54:05.909Z,24.92
2023-05-05T09:55:05.967Z,24.96
2023-05-05T09:56:05.928Z,24.99
2023-05-05T09:57:06.017Z,25.04
2023-05-05T09:58:06.033Z,25.07
2023-05-05T09:59:06.016Z,25.10
2023-05-05T10:00:06.160Z,25.12
2023-05-05T10:01:06.148Z,25.16
2023-05-05T10:02:06.106Z,25.19
2023-05-05T10:03:06.183Z,25.23
2023-05-05T10:04:06.328Z,25.28
2023-05-05T10:05:06.263Z,25.33
2023-05-05T10:06:06.169Z,25.36
2023-05-05T10:07:06.175Z,25.41
2023-05-05T10:08:06.209Z,25.46
2023-05-05T10:09:06.200Z,25.50
2023-05-05T10:10:06.321Z,25.54
2023-05-05T10:11:06.165Z,25.56
2023-05-05T10:12:06.145Z,25.60
2023-05-05T10:13:06.145Z,25.63
2023-05-05T10:14:06.096Z,25.65
2023-05-05T10:15:06.119Z,25.67
2023-05-05T10:16:06.087Z,25.69
2023-05-05T10:17:06.078Z,25.72
2023-05-05T10:18:08.174Z,25.74
2023-05-05T10:19:06.245Z,25.75
2023-05-05T10:20:06.446Z,25.77
2023-05-05T10:21:06.176Z,25.80
2023-05-05T10:22:06.168Z,25.82
2023-05-05T10:23:06.164Z,25.83
2023-05-05T10:24:06.185Z,25.85
2023-05-05T10:25:06.148Z,25.87
2023-05-05T10:26:06.113Z,25.88
2023-05-05T10:27:06.116Z,25.90
2023-05-05T10:28:06.085Z,25.92
2023-05-05T10:29:06.084Z,25.93
2023-05-05T10:30:06.211Z,25.94
2023-05-05T10:31:16.487Z,25.95
2023-05-05T10:32:27.121Z,25.96
2023-05-05T10:33:22.862Z,25.97
2023-05-05T10:34:07.085Z,25.99
2023-05-05T10:35:05.951Z,26.04
2023-05-05T10:36:06.035Z,26.11
2023-05-05T10:37:05.924Z,26.05
2023-05-05T10:38:05.880Z,25.93
2023-05-05T10:39:05.863Z,25.73
2023-05-05T10:40:05.978Z,25.69
2023-05-05T10:41:05.849Z,25.67
2023-05-05T10:42:05.827Z,25.69
2023-05-05T10:43:05.794Z,25.71
2023-05-05T10:44:05.849Z,25.74
2023-05-05T10:45:05.810Z,25.79
2023-05-05T10:46:05.812Z,25.82
2023-05-05T10:47:05.784Z,25.85
2023-05-05T10:48:05.838Z,25.86
2023-05-05T10:49:05.789Z,25.89
2023-05-05T10:50:05.796Z,25.92
2023-05-05T10:51:05.696Z,25.93
2023-05-05T10:52:05.850Z,25.96
2023-05-05T10:53:05.678Z,25.96
2023-05-05T10:54:05.701Z,25.98
2023-05-05T10:55:05.654Z,25.98
2023-05-05T10:56:05.625Z,25.97
2023-05-05T10:57:05.606Z,25.96
2023-05-05T10:58:05.595Z,25.96
2023-05-05T10:59:05.614Z,25.96
2023-05-05T11:00:05.646Z,26.00
2023-05-05T11:01:05.628Z,26.03
2023-05-05T11:02:05.584Z,26.08
2023-05-05T11:03:05.566Z,26.10
2023-05-05T11:04:05.643Z,26.13
2023-05-05T11:05:05.487Z,26.15
2023-05-05T11:06:05.464Z,26.16
2023-05-05T11:07:05.655Z,26.18
2023-05-05T11:08:05.420Z,26.18
2023-05-05T11:09:05.402Z,26.10
2023-05-05T11:10:05.486Z,26.08
2023-05-05T11:11:05.356Z,26.11
2023-05-05T11:12:05.328Z,26.16
2023-05-05T11:13:05.335Z,26.21
2023-05-05T11:14:05.348Z,26.25
2023-05-05T11:15:05.377Z,26.31
2023-05-05T11:16:05.654Z,26.35
2023-05-05T11:17:05.430Z,26.39
2023-05-05T11:18:07.331Z,26.42
2023-05-05T11:19:05.896Z,26.45
2023-05-05T11:20:05.832Z,26.46
2023-05-05T11:21:05.687Z,26.47
2023-05-05T11:22:05.635Z,26.48
2023-05-05T11:23:05.700Z,26.47
2023-05-05T11:24:05.659Z,26.45
2023-05-05T11:25:05.586Z,26.48
2023-05-05T11:26:05.594Z,26.51
2023-05-05T11:27:05.570Z,26.55
2023-05-05T11:28:05.528Z,26.56
2023-05-05T11:29:05.533Z,26.56
2023-05-05T11:30:05.555Z,26.53
2023-05-05T11:31:05.531Z,26.49
2023-05-05T11:32:05.426Z,26.46
2023-05-05T11:33:05.440Z,26.47
2023-05-05T11:34:05.381Z,26.47
2023-05-05T11:35:05.395Z,26.48
2023-05-05T11:36:06.769Z,26.48
2023-05-05T11:37:05.404Z,26.50
2023-05-05T11:38:05.439Z,26.52
2023-05-05T11:39:05.461Z,26.52
2023-05-05T11:40:05.662Z,26.51
2023-05-05T11:41:05.506Z,26.53
2023-05-05T11:42:10.371Z,26.54
2023-05-05T11:43:06.502Z,26.55
2023-05-05T11:44:05.474Z,26.55
2023-05-05T11:45:05.454Z,26.57
2023-05-05T11:46:05.451Z,26.54
2023-05-05T11:47:05.446Z,26.51
2023-05-05T11:48:05.442Z,26.50
2023-05-05T11:49:05.369Z,26.49
2023-05-05T11:50:05.376Z,26.47
2023-05-05T11:51:05.306Z,26.48
2023-05-05T11:52:05.296Z,26.45
2023-05-05T11:53:05.281Z,26.43
2023-05-05T11:54:05.277Z,26.40
2023-05-05T11:55:05.260Z,26.38
2023-05-05T11:56:05.446Z,26.38
2023-05-05T11:57:05.198Z,26.37
2023-05-05T11:58:05.215Z,26.41
2023-05-05T11:59:05.206Z,26.44
2023-05-05T12:00:05.221Z,26.46
2023-05-05T12:01:05.154Z,26.49
2023-05-05T12:02:05.125Z,26.51
2023-05-05T12:03:05.333Z,26.51
2023-05-05T12:04:05.255Z,26.54
2023-05-05T12:05:05.083Z,26.54
2023-05-05T12:06:05.031Z,26.56
2023-05-05T12:07:05.001Z,26.58
2023-05-05T12:08:05.009Z,26.59
2023-05-05T12:09:04.968Z,26.61
2023-05-05T12:10:05.025Z,26.63
2023-05-05T12:11:04.954Z,26.66
2023-05-05T12:12:04.973Z,26.68
2023-05-05T12:13:04.966Z,26.70
2023-05-05T12:14:04.934Z,26.72
2023-05-05T12:15:04.953Z,26.71
2023-05-05T12:16:04.969Z,26.71
2023-05-05T12:17:04.996Z,26.70
2023-05-05T12:18:05.081Z,26.68
2023-05-05T12:19:05.007Z,26.69
2023-05-05T12:20:05.041Z,26.67
2023-05-05T12:21:05.016Z,26.68
2023-05-05T12:22:05.045Z,26.71
2023-05-05T12:23:05.029Z,26.72
2023-05-05T12:24:05.056Z,26.72
2023-05-05T12:25:05.069Z,26.71
2023-05-05T12:26:05.070Z,26.71
2023-05-05T12:27:05.076Z,26.71
2023-05-05T12:28:05.152Z,26.71
2023-05-05T12:29:05.146Z,26.71
2023-05-05T12:30:05.150Z,26.70
2023-05-05T12:31:05.179Z,26.70
2023-05-05T12:32:05.250Z,26.71
2023-05-05T12:33:05.257Z,26.69
2023-05-05T12:34:05.227Z,26.66
2023-05-05T12:35:05.241Z,26.67
2023-05-05T12:36:05.236Z,26.70
2023-05-05T12:37:05.252Z,26.71
2023-05-05T12:38:05.290Z,26.72
2023-05-05T12:39:05.524Z,26.74
2023-05-05T12:40:05.283Z,26.74
2023-05-05T12:41:05.232Z,26.75
2023-05-05T12:42:05.282Z,26.74
2023-05-05T12:43:05.251Z,26.74
2023-05-05T12:44:05.379Z,26.74
2023-05-05T12:45:05.298Z,26.74
2023-05-05T12:46:05.349Z,26.73
2023-05-05T12:47:05.328Z,26.73
2023-05-05T12:48:05.372Z,26.73
2023-05-05T12:49:05.348Z,26.74
2023-05-05T12:50:05.337Z,26.75
2023-05-05T12:51:05.343Z,26.76
2023-05-05T12:52:05.345Z,26.75